Time;durP1;ratioP1;P1;durP2;ratioP2;P2;SDS_P1;SDS_P2;PMS_P1;PMS_P2;Temp;Humidity;BMP_temperature;BMP_pressure;BME280_temperature;BME280_humidity;BME280_pressure;Samples;Min_cycle;Max_cycle;Signal;HPM_P1;HPM_P2
2022/07/09 00:00:06;;;;;;;5.22;2.72;;;16.40;99.90;;;;;;5001808;28;20041;-75
2022/07/09 00:02:34;;;;;;;4.57;1.83;;;16.40;99.90;;;;;;5002005;28;20464;-74
2022/07/09 00:05:00;;;;;;;2.60;1.90;;;16.40;99.90;;;;;;5018061;28;20060;-75
2022/07/09 00:07:26;;;;;;;3.53;1.80;;;16.40;99.90;;;;;;4985793;28;20440;-75
2022/07/09 00:09:52;;;;;;;2.95;2.00;;;16.30;99.90;;;;;;5001770;28;20052;-75
2022/07/09 00:12:18;;;;;;;4.45;2.00;;;16.30;99.90;;;;;;5014509;28;20058;-75
2022/07/09 00:14:44;;;;;;;4.38;2.25;;;16.40;99.90;;;;;;5014938;28;20048;-75
2022/07/09 00:17:10;;;;;;;3.85;2.33;;;16.30;99.90;;;;;;5015285;28;20139;-74
2022/07/09 00:19:36;;;;;;;5.07;2.08;;;16.30;99.90;;;;;;5014545;28;20041;-75
2022/07/09 00:22:02;;;;;;;5.50;2.28;;;16.30;99.90;;;;;;5014554;28;20049;-75
2022/07/09 00:24:27;;;;;;;2.35;1.80;;;16.30;99.90;;;;;;4998144;28;20129;-75
2022/07/09 00:26:53;;;;;;;3.33;2.17;;;16.20;99.90;;;;;;5014409;28;20125;-75
2022/07/09 00:29:19;;;;;;;3.08;1.90;;;16.20;99.90;;;;;;5014417;28;20042;-75
2022/07/09 00:31:45;;;;;;;5.57;2.13;;;16.20;99.90;;;;;;5014312;28;20057;-75
2022/07/09 00:34:12;;;;;;;6.28;2.10;;;16.20;99.90;;;;;;4997922;28;20038;-75
2022/07/09 00:36:38;;;;;;;3.25;2.08;;;16.10;99.90;;;;;;5014500;28;20045;-75
2022/07/09 00:39:04;;;;;;;3.78;2.08;;;16.10;99.90;;;;;;5014052;28;20042;-75
2022/07/09 00:41:30;;;;;;;2.90;1.80;;;16.10;99.90;;;;;;4997932;28;20038;-75
2022/07/09 00:43:55;;;;;;;3.33;1.90;;;16.10;99.90;;;;;;5014402;28;20548;-75
2022/07/09 00:46:21;;;;;;;4.30;2.28;;;16.10;99.90;;;;;;5014093;28;20037;-75
2022/07/09 00:48:47;;;;;;;3.17;1.50;;;16.10;99.90;;;;;;5015917;28;20046;-74
2022/07/09 00:51:14;;;;;;;6.20;2.10;;;16.10;99.90;;;;;;5014316;28;20046;-75
2022/07/09 00:53:40;;;;;;;2.92;1.55;;;16.10;99.90;;;;;;5013921;28;20053;-75
2022/07/09 00:56:07;;;;;;;2.67;1.75;;;16.10;99.90;;;;;;5013856;28;20189;-75
2022/07/09 00:58:34;;;;;;;3.15;1.77;;;16.10;99.90;;;;;;5013728;28;20049;-75
2022/07/09 01:01:01;;;;;;;3.65;2.15;;;16.10;99.90;;;;;;5014040;28;20049;-75
2022/07/09 01:03:27;;;;;;;4.05;1.77;;;16.10;99.90;;;;;;5014039;28;20048;-75
2022/07/09 01:05:53;;;;;;;3.45;2.20;;;16.10;99.90;;;;;;5013741;28;20041;-75
2022/07/09 01:08:19;;;;;;;3.92;1.90;;;16.40;99.90;;;;;;5013882;28;20503;-75
2022/07/09 01:10:45;;;;;;;4.60;1.90;;;16.00;99.90;;;;;;4997228;28;20046;-75
2022/07/09 01:13:11;;;;;;;3.03;1.70;;;16.00;99.90;;;;;;5013462;28;20141;-75
2022/07/09 01:15:37;;;;;;;2.38;1.83;;;16.10;99.90;;;;;;5013556;28;20481;-75
2022/07/09 01:18:03;;;;;;;6.15;2.03;;;16.10;99.90;;;;;;5013716;28;20045;-74
2022/07/09 01:20:29;;;;;;;8.48;2.20;;;16.10;99.90;;;;;;5013711;28;20073;-75
2022/07/09 01:22:56;;;;;;;2.95;2.00;;;16.00;99.90;;;;;;5013333;28;20041;-75
2022/07/09 01:25:33;;;;;;;5.32;1.88;;;16.10;99.90;;;;;;4998066;28;20061;-75
2022/07/09 01:27:59;;;;;;;5.15;1.88;;;16.30;99.90;;;;;;5013262;28;20041;-75
2022/07/09 01:30:27;;;;;;;2.22;1.63;;;16.10;99.90;;;;;;5013181;28;20508;-75
2022/07/09 01:32:54;;;;;;;3.60;2.00;;;16.10;99.90;;;;;;5013190;28;20088;-75
2022/07/09 01:35:21;;;;;;;4.68;1.75;;;16.10;99.90;;;;;;4996798;28;20041;-75
2022/07/09 01:37:46;;;;;;;1.85;1.38;;;16.10;99.90;;;;;;5013120;28;20041;-75
2022/07/09 01:40:13;;;;;;;6.07;1.80;;;16.10;99.90;;;;;;4996592;28;20046;-75
2022/07/09 01:42:39;;;;;;;4.10;2.10;;;16.10;99.90;;;;;;5013343;28;20037;-75
2022/07/09 01:45:06;;;;;;;5.40;1.80;;;16.10;99.90;;;;;;5012894;28;20081;-75
2022/07/09 01:47:31;;;;;;;5.22;1.90;;;16.10;99.90;;;;;;5013231;28;20038;-75
2022/07/09 01:49:57;;;;;;;2.00;1.50;;;16.10;99.90;;;;;;5012832;28;20046;-75
2022/07/09 01:52:24;;;;;;;3.28;2.03;;;16.10;99.90;;;;;;4996488;28;20049;-75
2022/07/09 01:54:50;;;;;;;6.07;2.35;;;16.10;99.90;;;;;;4996770;28;20042;-75
2022/07/09 01:57:16;;;;;;;3.88;2.00;;;16.10;99.90;;;;;;4996575;28;20049;-73
2022/07/09 01:59:41;;;;;;;5.30;1.80;;;16.10;99.90;;;;;;4997482;28;20486;-75
2022/07/09 02:02:07;;;;;;;2.75;1.75;;;16.10;99.90;;;;;;4996296;28;20064;-74
2022/07/09 02:04:33;;;;;;;3.28;1.85;;;16.10;99.90;;;;;;5012226;28;20088;-75
2022/07/09 02:06:58;;;;;;;4.93;2.15;;;16.20;99.90;;;;;;5012796;28;20045;-75
2022/07/09 02:09:24;;;;;;;6.25;2.33;;;16.10;99.90;;;;;;5012565;28;20045;-75
2022/07/09 02:11:50;;;;;;;5.35;2.10;;;16.20;99.90;;;;;;5012364;28;20092;-74
2022/07/09 02:14:16;;;;;;;3.10;1.90;;;16.20;99.90;;;;;;4996143;28;20049;-75
2022/07/09 02:16:42;;;;;;;3.90;2.28;;;16.20;99.90;;;;;;4996346;28;20045;-75
2022/07/09 02:19:08;;;;;;;9.50;2.25;;;16.20;99.90;;;;;;5012498;28;20470;-75
2022/07/09 02:21:34;;;;;;;4.43;1.98;;;16.10;99.90;;;;;;5012436;28;20046;-75
2022/07/09 02:24:00;;;;;;;3.92;2.13;;;16.10;99.90;;;;;;4996212;28;20449;-75
2022/07/09 02:26:27;;;;;;;2.85;1.75;;;16.20;99.90;;;;;;4995907;28;20033;-75
2022/07/09 02:28:54;;;;;;;5.25;2.35;;;16.20;99.90;;;;;;5012537;28;20041;-75
2022/07/09 02:31:20;;;;;;;3.70;2.15;;;16.10;99.90;;;;;;5012220;28;20041;-75
2022/07/09 02:33:46;;;;;;;4.63;2.47;;;16.10;99.90;;;;;;5012366;28;20048;-75
2022/07/09 02:36:12;;;;;;;3.92;2.40;;;16.10;99.90;;;;;;5012179;28;20034;-75
2022/07/09 02:38:37;;;;;;;5.57;2.40;;;16.00;99.90;;;;;;4995684;28;20440;-76
2022/07/09 02:41:03;;;;;;;5.88;2.63;;;16.10;99.90;;;;;;5012374;28;20037;-75
2022/07/09 02:43:29;;;;;;;6.90;2.53;;;16.10;99.90;;;;;;4995692;28;20038;-75
2022/07/09 02:45:55;;;;;;;6.80;2.45;;;16.10;99.90;;;;;;5012044;28;20077;-76
2022/07/09 02:48:27;;;;;;;4.60;2.33;;;16.10;99.90;;;;;;4995972;28;20033;-75
2022/07/09 02:50:53;;;;;;;6.25;2.95;;;16.10;99.90;;;;;;5011973;28;20042;-75
2022/07/09 02:53:20;;;;;;;4.05;2.20;;;16.10;99.90;;;;;;5011961;28;20068;-75
2022/07/09 02:55:46;;;;;;;4.25;2.28;;;16.10;99.90;;;;;;5012063;28;20048;-75
2022/07/09 02:58:12;;;;;;;5.40;2.55;;;16.10;99.90;;;;;;5011854;28;20046;-75
2022/07/09 03:00:41;;;;;;;7.40;2.63;;;16.10;99.90;;;;;;5013190;28;20042;-75
2022/07/09 03:03:07;;;;;;;6.40;2.30;;;16.10;99.90;;;;;;5011782;28;20049;-75
2022/07/09 03:05:34;;;;;;;4.47;2.50;;;16.10;99.90;;;;;;5011806;28;20049;-75
2022/07/09 03:08:00;;;;;;;4.85;2.53;;;16.10;99.90;;;;;;5012057;28;20420;-75
2022/07/09 03:10:26;;;;;;;7.72;2.60;;;16.10;99.90;;;;;;4995378;28;20045;-75
2022/07/09 03:12:52;;;;;;;3.03;2.03;;;16.00;99.90;;;;;;5011057;28;20089;-75
2022/07/09 03:15:18;;;;;;;6.80;2.60;;;16.10;99.90;;;;;;4994651;28;20387;-75
2022/07/09 03:17:44;;;;;;;9.98;3.00;;;16.10;99.90;;;;;;5013417;28;20378;-75
2022/07/09 03:20:10;;;;;;;5.15;2.65;;;16.00;99.90;;;;;;5014302;28;20115;-75
2022/07/09 03:22:37;;;;;;;3.97;2.05;;;16.00;99.90;;;;;;5014586;28;20049;-75
2022/07/09 03:25:04;;;;;;;8.18;2.10;;;16.00;99.90;;;;;;5014209;28;20424;-74
2022/07/09 03:27:29;;;;;;;3.47;2.20;;;16.00;99.90;;;;;;5014443;28;20104;-75
2022/07/09 03:29:55;;;;;;;4.18;2.33;;;16.00;99.90;;;;;;5014166;28;20042;-75
2022/07/09 03:32:21;;;;;;;6.85;2.42;;;15.90;99.90;;;;;;5014626;28;20041;-75
2022/07/09 03:34:47;;;;;;;5.63;2.58;;;16.00;99.90;;;;;;4998102;28;20045;-75
2022/07/09 03:37:13;;;;;;;4.50;2.55;;;15.90;99.90;;;;;;5014126;28;20045;-75
2022/07/09 03:39:39;;;;;;;4.95;2.70;;;15.90;99.90;;;;;;5013944;28;20112;-75
2022/07/09 03:42:06;;;;;;;4.68;2.40;;;15.90;99.90;;;;;;5013940;28;20048;-75
2022/07/09 03:44:33;;;;;;;4.28;1.95;;;15.90;99.90;;;;;;4998013;28;20125;-76
2022/07/09 03:46:59;;;;;;;3.95;2.25;;;15.90;99.90;;;;;;4997884;28;20552;-75
2022/07/09 03:49:25;;;;;;;5.40;2.40;;;15.90;99.90;;;;;;5013886;28;20050;-75
2022/07/09 03:51:50;;;;;;;4.75;2.35;;;15.90;99.90;;;;;;5014056;28;20042;-76
2022/07/09 03:54:16;;;;;;;6.03;2.47;;;15.90;99.90;;;;;;5013835;28;20045;-75
2022/07/09 03:56:41;;;;;;;3.70;2.00;;;16.00;99.90;;;;;;5013774;28;20046;-75
2022/07/09 03:59:07;;;;;;;5.35;2.03;;;16.00;99.90;;;;;;5013638;28;20046;-75
2022/07/09 04:01:33;;;;;;;3.60;1.98;;;16.00;99.90;;;;;;5014007;28;20196;-75
2022/07/09 04:03:58;;;;;;;3.53;1.70;;;16.00;99.90;;;;;;5013659;28;20044;-75
2022/07/09 04:06:25;;;;;;;5.32;2.53;;;16.00;99.90;;;;;;4998264;28;20534;-75
2022/07/09 04:08:50;;;;;;;5.43;1.63;;;16.00;99.90;;;;;;5013594;28;20041;-75
2022/07/09 04:11:16;;;;;;;5.03;1.88;;;16.00;99.90;;;;;;4975682;28;1098429;-75
2022/07/09 04:13:42;;;;;;;4.90;2.00;;;16.00;99.90;;;;;;5018323;28;20120;-75
2022/07/09 04:16:07;;;;;;;3.88;2.10;;;15.90;99.90;;;;;;5017925;28;20037;-75
2022/07/09 04:18:35;;;;;;;4.28;2.58;;;16.00;99.90;;;;;;5001474;28;20055;-75
2022/07/09 04:21:01;;;;;;;4.43;2.25;;;16.00;99.90;;;;;;5017821;28;20041;-75
2022/07/09 04:23:27;;;;;;;4.60;2.13;;;16.00;99.90;;;;;;5001504;28;20045;-75
2022/07/09 04:25:53;;;;;;;4.15;2.03;;;16.00;99.90;;;;;;5001739;28;20043;-75
2022/07/09 04:28:19;;;;;;;3.95;2.13;;;16.00;99.90;;;;;;5000927;28;20098;-75
2022/07/09 04:30:46;;;;;;;4.43;2.00;;;15.90;99.90;;;;;;5017742;28;20045;-75
2022/07/09 04:33:12;;;;;;;2.97;1.88;;;16.00;99.90;;;;;;5017695;28;20044;-75
2022/07/09 04:35:38;;;;;;;3.92;2.17;;;18.10;99.90;;;;;;5001545;28;20132;-74
2022/07/09 04:38:04;;;;;;;5.75;1.98;;;16.00;99.90;;;;;;5021339;28;20041;-75
2022/07/09 04:40:30;;;;;;;5.72;2.38;;;16.00;99.90;;;;;;5001542;28;20044;-75
2022/07/09 04:42:56;;;;;;;3.88;1.83;;;16.00;99.90;;;;;;5001195;28;20041;-75
2022/07/09 04:45:22;;;;;;;3.42;1.50;;;16.10;99.90;;;;;;5001041;28;20046;-75
2022/07/09 04:47:48;;;;;;;2.83;1.67;;;16.10;99.90;;;;;;5001103;28;20064;-75
2022/07/09 04:50:13;;;;;;;3.72;1.85;;;16.20;99.90;;;;;;4984828;28;20472;-75
2022/07/09 04:52:39;;;;;;;3.28;1.95;;;16.20;99.90;;;;;;4984768;28;20124;-75
2022/07/09 04:55:06;;;;;;;5.35;2.28;;;16.20;99.90;;;;;;5000857;28;20049;-75
2022/07/09 04:57:32;;;;;;;1.98;1.35;;;16.20;99.90;;;;;;4984767;28;20058;-75
2022/07/09 05:00:03;;;;;;;2.45;1.67;;;16.30;99.90;;;;;;5017099;28;20424;-75
2022/07/09 05:02:29;;;;;;;3.92;1.80;;;16.30;99.90;;;;;;5017120;28;20034;-75
2022/07/09 05:04:55;;;;;;;3.08;1.80;;;16.30;99.90;;;;;;5017076;28;20037;-75
2022/07/09 05:07:20;;;;;;;3.53;1.60;;;16.30;99.90;;;;;;5000731;28;20446;-75
2022/07/09 05:09:46;;;;;;;3.53;1.73;;;16.40;99.90;;;;;;5017216;28;20135;-75
2022/07/09 05:12:12;;;;;;;3.42;1.65;;;16.40;99.90;;;;;;5016262;28;20064;-72
2022/07/09 05:14:38;;;;;;;7.82;2.17;;;16.40;99.90;;;;;;5016764;28;20415;-75
2022/07/09 05:17:05;;;;;;;2.70;1.80;;;16.40;99.90;;;;;;5013452;28;20046;-75
2022/07/09 05:19:31;;;;;;;3.50;1.80;;;16.40;99.90;;;;;;4997124;28;20042;-75
2022/07/09 05:21:57;;;;;;;3.58;2.17;;;16.50;99.90;;;;;;4997110;28;20042;-74
2022/07/09 05:24:22;;;;;;;2.00;1.25;;;16.50;99.90;;;;;;5013408;28;20049;-74
2022/07/09 05:26:49;;;;;;;6.10;1.77;;;16.50;99.90;;;;;;4997027;28;20041;-75
2022/07/09 05:29:14;;;;;;;4.10;2.10;;;16.60;99.90;;;;;;5013353;28;20045;-75
2022/07/09 05:31:40;;;;;;;3.70;1.95;;;16.60;99.90;;;;;;4996933;28;20042;-75
2022/07/09 05:34:07;;;;;;;2.88;1.73;;;16.70;99.90;;;;;;5013217;28;20382;-75
2022/07/09 05:36:33;;;;;;;4.75;1.95;;;16.80;99.90;;;;;;5013236;28;20054;-74
2022/07/09 05:38:59;;;;;;;3.53;2.05;;;16.90;99.90;;;;;;4996173;28;20041;-74
2022/07/09 05:41:25;;;;;;;3.45;1.98;;;17.00;99.90;;;;;;5013094;28;20092;-74
2022/07/09 05:43:52;;;;;;;3.42;2.00;;;17.10;99.90;;;;;;5013309;28;20042;-75
2022/07/09 05:46:18;;;;;;;6.50;2.05;;;17.00;99.90;;;;;;5013283;28;20045;-74
2022/07/09 05:48:44;;;;;;;2.72;1.80;;;17.10;99.90;;;;;;4998144;28;20044;-75
2022/07/09 05:51:09;;;;;;;3.13;1.48;;;17.10;99.90;;;;;;5013144;28;20046;-75
2022/07/09 05:53:35;;;;;;;6.97;1.70;;;17.10;99.90;;;;;;5012861;28;20107;-75
2022/07/09 05:56:01;;;;;;;3.47;1.85;;;17.10;99.90;;;;;;4996748;28;20053;-75
2022/07/09 05:58:26;;;;;;;3.45;1.63;;;17.10;99.90;;;;;;5012693;28;20121;-74
2022/07/09 06:00:52;;;;;;;2.58;1.52;;;17.10;99.90;;;;;;4996462;28;20119;-75
2022/07/09 06:03:18;;;;;;;3.25;1.48;;;17.20;99.90;;;;;;5012730;28;20092;-75
2022/07/09 06:05:44;;;;;;;4.40;2.00;;;17.20;99.90;;;;;;4996946;28;20038;-75
2022/07/09 06:08:09;;;;;;;3.80;1.80;;;17.20;99.90;;;;;;4996166;28;20041;-74
2022/07/09 06:10:35;;;;;;;2.03;1.38;;;17.20;99.90;;;;;;4996258;28;20550;-73
2022/07/09 06:13:01;;;;;;;1.92;1.13;;;17.30;99.90;;;;;;4995944;28;20089;-74
2022/07/09 06:15:27;;;;;;;4.63;1.48;;;17.30;99.90;;;;;;4996385;28;20085;-73
2022/07/09 06:17:53;;;;;;;3.00;1.60;;;17.30;99.90;;;;;;5012449;28;20041;-73
2022/07/09 06:20:18;;;;;;;4.13;1.63;;;17.40;99.90;;;;;;5012432;28;20054;-73
2022/07/09 06:22:44;;;;;;;3.17;1.08;;;17.40;99.90;;;;;;4996748;28;20038;-73
2022/07/09 06:25:10;;;;;;;1.95;1.25;;;17.40;99.90;;;;;;5013179;28;20041;-72
2022/07/09 06:27:36;;;;;;;3.75;2.03;;;17.40;99.90;;;;;;5012557;28;20041;-72
2022/07/09 06:30:02;;;;;;;5.40;1.70;;;17.40;99.90;;;;;;5012465;28;20512;-74
2022/07/09 06:32:28;;;;;;;4.03;1.65;;;17.40;99.90;;;;;;5012457;28;20057;-74
2022/07/09 06:34:54;;;;;;;5.10;1.50;;;17.40;99.90;;;;;;5012645;28;20041;-77
2022/07/09 06:37:19;;;;;;;2.45;1.50;;;17.40;99.90;;;;;;5012410;28;20034;-75
2022/07/09 06:39:45;;;;;;;2.30;1.55;;;17.50;99.90;;;;;;5012095;28;20092;-75
2022/07/09 06:42:12;;;;;;;2.38;1.50;;;17.50;99.90;;;;;;5012373;28;20509;-75
2022/07/09 06:44:38;;;;;;;5.50;1.27;;;17.50;99.90;;;;;;5012291;28;20085;-75
2022/07/09 06:47:05;;;;;;;1.15;1.00;;;17.60;99.90;;;;;;5011948;28;20037;-75
2022/07/09 06:49:30;;;;;;;1.55;0.85;;;17.60;99.90;;;;;;5011803;28;20046;-75
2022/07/09 06:51:56;;;;;;;2.42;1.23;;;17.60;99.90;;;;;;5011695;28;20140;-79
2022/07/09 06:54:22;;;;;;;2.17;1.20;;;17.70;99.90;;;;;;4995423;28;20041;-76
2022/07/09 06:56:48;;;;;;;1.65;1.05;;;17.80;99.90;;;;;;5012115;28;20441;-80
2022/07/09 06:59:14;;;;;;;3.67;1.50;;;17.90;99.90;;;;;;5011849;28;20038;-75
2022/07/09 07:01:40;;;;;;;3.60;1.08;;;17.90;99.90;;;;;;5012010;28;20129;-83
2022/07/09 07:04:06;;;;;;;6.53;1.45;;;17.90;99.90;;;;;;5012045;28;20128;-74
2022/07/09 07:06:32;;;;;;;2.80;1.23;;;17.90;99.90;;;;;;5012064;28;20444;-73
2022/07/09 07:08:58;;;;;;;2.80;1.48;;;17.90;99.90;;;;;;5011689;28;20136;-73
2022/07/09 07:11:24;;;;;;;1.73;1.17;;;17.90;99.90;;;;;;5011765;28;20089;-74
2022/07/09 07:13:51;;;;;;;3.35;1.25;;;17.90;99.90;;;;;;5011616;28;20521;-72
2022/07/09 07:16:17;;;;;;;2.13;1.40;;;17.90;99.90;;;;;;5011987;28;20088;-74
2022/07/09 07:18:42;;;;;;;2.08;1.30;;;17.90;99.90;;;;;;4995599;28;20127;-76
2022/07/09 07:21:08;;;;;;;2.03;1.33;;;17.90;99.90;;;;;;5011870;28;20042;-85
2022/07/09 07:23:34;;;;;;;2.03;1.20;;;17.80;99.90;;;;;;4995351;28;20124;-82
2022/07/09 07:26:00;;;;;;;4.47;1.27;;;17.90;99.90;;;;;;4995892;28;20042;-82
2022/07/09 07:28:26;;;;;;;1.80;1.20;;;17.80;99.90;;;;;;5011722;28;20041;-81
2022/07/09 07:30:52;;;;;;;1.42;1.08;;;17.80;99.90;;;;;;4995530;28;20037;-76
2022/07/09 07:33:18;;;;;;;2.63;1.30;;;17.90;99.90;;;;;;5011594;28;20065;-74
2022/07/09 07:35:44;;;;;;;2.03;1.20;;;17.90;99.90;;;;;;5011563;28;20528;-75
2022/07/09 07:38:10;;;;;;;2.28;1.20;;;17.90;99.90;;;;;;5011501;28;20049;-84
2022/07/09 07:40:36;;;;;;;2.05;1.20;;;18.00;99.90;;;;;;5011469;28;20494;-84
2022/07/09 07:43:02;;;;;;;1.42;0.95;;;18.20;99.90;;;;;;4995899;28;20044;-84
2022/07/09 07:45:28;;;;;;;1.63;0.90;;;18.00;99.90;;;;;;5011471;28;20120;-85
2022/07/09 07:47:54;;;;;;;1.92;1.05;;;18.40;99.90;;;;;;4995086;28;20501;-85
2022/07/09 07:50:21;;;;;;;2.08;1.05;;;18.50;99.90;;;;;;4995061;28;20409;-83
2022/07/09 07:52:46;;;;;;;3.22;1.27;;;18.70;99.90;;;;;;4995194;28;20044;-86
2022/07/09 07:55:12;;;;;;;1.58;0.93;;;18.90;99.90;;;;;;4995214;28;20409;-86
2022/07/09 07:57:38;;;;;;;1.92;1.13;;;19.00;99.90;;;;;;5015590;28;20050;-86
2022/07/09 08:00:05;;;;;;;1.45;1.00;;;19.00;99.90;;;;;;4994932;28;20046;-86
2022/07/09 08:02:31;;;;;;;1.80;1.02;;;19.00;99.90;;;;;;4995899;28;20049;-86
2022/07/09 08:04:57;;;;;;;1.70;0.90;;;19.00;99.90;;;;;;4999133;28;20049;-85
2022/07/09 08:07:23;;;;;;;2.22;0.80;;;19.00;99.90;;;;;;4998698;28;20409;-84
2022/07/09 08:09:49;;;;;;;2.20;1.00;;;19.00;99.90;;;;;;5014779;28;20042;-84
2022/07/09 08:12:14;;;;;;;2.50;1.00;;;19.10;99.90;;;;;;5014946;28;20573;-86
2022/07/09 08:14:40;;;;;;;1.27;0.85;;;19.10;99.90;;;;;;4998956;28;20046;-85
2022/07/09 08:17:06;;;;;;;2.63;1.08;;;19.10;99.90;;;;;;5014912;28;20100;-86
2022/07/09 08:19:32;;;;;;;0.75;0.63;;;19.30;99.90;;;;;;4998440;28;20412;-85
2022/07/09 08:21:57;;;;;;;1.55;0.80;;;19.20;99.90;;;;;;4999173;28;20040;-84
2022/07/09 08:24:23;;;;;;;4.97;1.00;;;19.20;99.90;;;;;;4998974;28;20088;-85
2022/07/09 08:26:49;;;;;;;0.98;0.57;;;19.20;99.90;;;;;;5015653;28;20132;-85
2022/07/09 08:29:14;;;;;;;2.28;0.82;;;19.30;99.90;;;;;;4999036;28;20046;-85
2022/07/09 08:31:40;;;;;;;1.55;1.05;;;19.30;99.90;;;;;;5018805;28;20041;-85
2022/07/09 08:34:06;;;;;;;2.00;0.80;;;19.30;99.90;;;;;;4998701;28;20092;-85
2022/07/09 08:36:31;;;;;;;1.42;0.65;;;19.50;99.90;;;;;;4998793;28;20045;-85
2022/07/09 08:38:57;;;;;;;0.50;0.50;;;19.70;99.90;;;;;;4998775;28;20052;-84
2022/07/09 08:41:23;;;;;;;0.50;0.38;;;19.80;99.90;;;;;;5014887;28;20428;-84
2022/07/09 08:43:53;;;;;;;1.38;0.90;;;20.00;99.90;;;;;;4998114;28;20041;-84
2022/07/09 08:46:20;;;;;;;3.55;0.63;;;20.30;99.90;;;;;;4998768;28;20096;-85
2022/07/09 08:48:46;;;;;;;1.13;0.60;;;20.50;99.90;;;;;;5014645;28;20034;-86
2022/07/09 08:51:13;;;;;;;0.93;0.77;;;20.40;99.90;;;;;;4998014;28;20048;-86
2022/07/09 08:53:43;;;;;;;1.25;0.63;;;20.20;99.90;;;;;;4998082;28;20038;-86
2022/07/09 08:56:10;;;;;;;2.05;0.68;;;20.00;99.90;;;;;;4998463;28;20440;-87
2022/07/09 08:58:38;;;;;;;0.68;0.50;;;19.80;99.90;;;;;;5014038;28;20045;-85
2022/07/09 09:01:05;;;;;;;0.57;0.57;;;20.00;99.90;;;;;;5001192;28;20050;-85
2022/07/09 09:03:30;;;;;;;2.20;0.50;;;20.10;99.90;;;;;;4997993;28;20060;-85
2022/07/09 09:06:15;;;;;;;1.90;0.65;;;20.30;99.90;;;;;;5014039;28;20034;-84
2022/07/09 09:08:42;;;;;;;0.90;0.47;;;20.60;99.90;;;;;;4997365;28;20099;-85
2022/07/09 09:11:19;;;;;;;0.82;0.57;;;21.00;99.90;;;;;;5013594;28;20077;-79
2022/07/09 09:13:47;;;;;;;1.00;0.70;;;;;;;;;;5012604;28;20078;-79
2022/07/09 09:16:13;;;;;;;0.40;0.40;;;;;;;;;;4997180;28;20065;-82
2022/07/09 09:18:44;;;;;;;0.75;0.50;;;;;;;;;;4997098;28;20046;-74
2022/07/09 09:21:10;;;;;;;1.02;0.60;;;;;;;;;;4997449;28;20041;-73
2022/07/09 09:23:40;;;;;;;0.85;0.52;;;;;;;;;;5013440;28;20145;-76
2022/07/09 09:26:16;;;;;;;0.75;0.57;;;;;;;;;;4997295;28;20540;-75
2022/07/09 09:28:47;;;;;;;1.10;0.63;;;;;;;;;;5013424;28;20045;-76
2022/07/09 09:31:20;;;;;;;0.63;0.40;;;;;;;;;;5013296;28;20049;-74
2022/07/09 09:33:46;;;;;;;0.80;0.50;;;21.00;99.90;;;;;;5013221;28;20042;-75
2022/07/09 09:36:11;;;;;;;0.45;0.45;;;20.90;99.90;;;;;;4996783;28;20045;-76
2022/07/09 09:38:37;;;;;;;1.13;0.50;;;21.00;99.90;;;;;;4996713;28;20485;-77
2022/07/09 09:41:03;;;;;;;0.88;0.38;;;21.00;99.90;;;;;;5013093;28;20041;-77
2022/07/09 09:43:31;;;;;;;1.23;0.70;;;21.50;99.90;;;;;;5013078;28;20382;-77
2022/07/09 09:46:02;;;;;;;0.57;0.43;;;21.50;99.90;;;;;;5013058;28;20046;-76
2022/07/09 09:48:29;;;;;;;0.43;0.40;;;;;;;;;;4996956;28;20034;-75
2022/07/09 09:50:56;;;;;;;0.50;0.40;;;;;;;;;;5013195;28;20048;-74
2022/07/09 09:53:23;;;;;;;1.65;0.60;;;;;;;;;;5012961;28;20100;-75
2022/07/09 09:55:50;;;;;;;1.27;0.50;;;;;;;;;;4997604;28;20107;-76
2022/07/09 09:58:16;;;;;;;1.10;0.52;;;;;;;;;;4996369;28;20038;-80
2022/07/09 10:00:42;;;;;;;1.13;0.50;;;;;;;;;;5013091;28;20034;-76
2022/07/09 10:03:12;;;;;;;0.85;0.50;;;;;;;;;;5013895;28;20436;-79
2022/07/09 10:05:38;;;;;;;0.98;0.52;;;21.40;99.90;;;;;;5013014;28;20060;-76
2022/07/09 10:08:04;;;;;;;0.30;0.30;;;21.50;99.90;;;;;;4996427;28;20121;-75
2022/07/09 10:10:29;;;;;;;2.38;0.60;;;21.50;99.90;;;;;;5012692;28;20077;-76
2022/07/09 10:12:55;;;;;;;0.90;0.50;;;21.40;99.90;;;;;;4996031;28;20492;-79
2022/07/09 10:15:26;;;;;;;0.50;0.35;;;21.50;99.90;;;;;;5012889;28;20405;-79
2022/07/09 10:17:52;;;;;;;0.73;0.47;;;21.20;99.90;;;;;;4996535;28;20049;-78
2022/07/09 10:20:33;;;;;;;3.13;0.63;;;21.10;99.90;;;;;;5012438;28;20045;-77
2022/07/09 10:23:00;;;;;;;3.03;0.70;;;21.10;99.90;;;;;;4996042;28;20045;-77
2022/07/09 10:25:30;;;;;;;0.60;0.50;;;21.10;99.90;;;;;;4995674;28;20041;-73
2022/07/09 10:27:56;;;;;;;1.05;0.50;;;21.50;99.90;;;;;;5012579;28;20397;-75
2022/07/09 10:30:29;;;;;;;3.45;0.57;;;21.30;99.90;;;;;;4995920;28;20155;-75
2022/07/09 10:33:23;;;;;;;1.30;0.60;;;21.40;99.90;;;;;;5012539;28;20064;-74
2022/07/09 10:35:57;;;;;;;3.17;0.93;;;21.20;99.90;;;;;;5010986;28;20057;-76
2022/07/09 10:38:34;;;;;;;0.73;0.43;;;21.20;99.90;;;;;;5012132;28;20124;-73
2022/07/09 10:41:01;;;;;;;1.70;0.80;;;21.10;99.90;;;;;;4996022;28;20042;-81
2022/07/09 10:43:43;;;;;;;1.88;0.68;;;21.00;99.90;;;;;;4995710;28;20049;-77
2022/07/09 10:46:13;;;;;;;0.65;0.43;;;20.90;99.90;;;;;;4995703;28;20041;-78
2022/07/09 10:48:39;;;;;;;2.92;0.63;;;20.90;99.90;;;;;;5012411;28;20099;-78
2022/07/09 10:51:06;;;;;;;1.80;0.57;;;21.00;99.90;;;;;;5012297;28;20396;-76
2022/07/09 10:53:31;;;;;;;0.50;0.40;;;21.10;99.90;;;;;;5011955;28;20132;-75
2022/07/09 10:55:59;;;;;;;0.68;0.50;;;21.30;99.90;;;;;;4995483;28;20038;-74
2022/07/09 10:58:26;;;;;;;2.55;0.70;;;;;;;;;;5011752;28;20057;-76
2022/07/09 11:00:59;;;;;;;1.40;0.63;;;21.90;99.90;;;;;;4995495;28;20041;-76
2022/07/09 11:03:26;;;;;;;1.23;0.50;;;22.00;99.90;;;;;;5012501;28;20046;-74
2022/07/09 11:05:52;;;;;;;1.63;0.70;;;21.90;99.90;;;;;;5012123;28;20049;-76
2022/07/09 11:08:18;;;;;;;4.15;0.50;;;21.80;99.90;;;;;;4995451;28;20121;-75
2022/07/09 11:10:47;;;;;;;1.98;0.60;;;21.60;99.90;;;;;;5012018;28;20108;-75
2022/07/09 11:13:12;;;;;;;2.85;0.57;;;21.10;99.90;;;;;;4995157;28;20141;-74
2022/07/09 11:15:38;;;;;;;4.20;0.50;;;20.70;99.90;;;;;;4995447;28;20132;-74
2022/07/09 11:18:09;;;;;;;1.23;0.40;;;20.50;99.90;;;;;;4995194;28;20038;-76
2022/07/09 11:20:44;;;;;;;1.08;0.65;;;20.30;99.90;;;;;;5011602;28;20406;-74
2022/07/09 11:23:10;;;;;;;6.10;0.90;;;20.20;99.90;;;;;;5011432;28;20124;-74
2022/07/09 11:25:36;;;;;;;0.90;0.50;;;20.20;99.90;;;;;;5011794;28;20042;-73
2022/07/09 11:28:03;;;;;;;3.08;0.73;;;20.30;99.90;;;;;;4995513;28;20041;-77
2022/07/09 11:30:30;;;;;;;1.08;0.43;;;20.40;99.90;;;;;;4995062;28;20092;-72
2022/07/09 11:32:56;;;;;;;0.77;0.60;;;20.50;99.90;;;;;;5011339;28;20045;-74
2022/07/09 11:35:28;;;;;;;2.30;0.50;;;20.50;99.90;;;;;;4995095;28;20045;-74
2022/07/09 11:37:55;;;;;;;1.35;0.68;;;20.50;99.90;;;;;;4996772;28;20041;-75
2022/07/09 11:40:21;;;;;;;2.67;0.50;;;20.50;99.90;;;;;;5015401;28;20044;-75
2022/07/09 11:42:47;;;;;;;2.40;0.50;;;20.60;99.90;;;;;;4998690;28;20038;-74
2022/07/09 11:45:12;;;;;;;0.82;0.47;;;20.60;99.90;;;;;;5015162;28;20073;-73
2022/07/09 11:47:39;;;;;;;1.50;0.80;;;20.80;99.90;;;;;;5014979;28;20450;-74
2022/07/09 11:50:13;;;;;;;1.10;0.65;;;20.70;99.90;;;;;;4998788;28;20132;-74
2022/07/09 11:52:49;;;;;;;2.13;0.73;;;20.70;99.90;;;;;;4998818;28;20152;-74
2022/07/09 11:55:17;;;;;;;1.33;0.60;;;20.70;99.90;;;;;;4998772;28;20053;-74
2022/07/09 11:58:05;;;;;;;0.45;0.40;;;20.60;99.90;;;;;;5015012;28;20049;-74
2022/07/09 12:00:33;;;;;;;1.25;0.45;;;20.60;99.90;;;;;;5014843;28;20038;-74
2022/07/09 12:03:00;;;;;;;2.05;0.47;;;20.70;99.90;;;;;;5014770;28;20041;-74
2022/07/09 12:05:29;;;;;;;2.25;0.57;;;20.50;99.90;;;;;;5015067;28;20523;-74
2022/07/09 12:07:55;;;;;;;0.50;0.30;;;20.60;99.90;;;;;;5014674;28;20041;-74
2022/07/09 12:10:30;;;;;;;1.23;0.30;;;20.70;99.90;;;;;;4998429;28;20088;-74
2022/07/09 12:12:57;;;;;;;0.95;0.47;;;20.60;99.90;;;;;;5014468;28;20066;-74
2022/07/09 12:15:22;;;;;;;1.55;0.60;;;20.50;99.90;;;;;;4998363;28;20041;-74
2022/07/09 12:17:56;;;;;;;1.17;0.52;;;20.40;99.90;;;;;;4998560;28;20393;-74
2022/07/09 12:20:24;;;;;;;0.43;0.43;;;20.40;99.90;;;;;;5014435;28;20045;-76
2022/07/09 12:22:50;;;;;;;0.75;0.25;;;20.50;99.90;;;;;;5014511;28;20088;-76
2022/07/09 12:25:16;;;;;;;2.47;0.30;;;20.50;99.90;;;;;;5014549;28;20088;-73
2022/07/09 12:27:42;;;;;;;0.40;0.30;;;20.40;99.90;;;;;;5014458;28;20049;-73
2022/07/09 12:30:09;;;;;;;0.63;0.20;;;20.40;99.90;;;;;;4998365;28;20034;-73
2022/07/09 12:32:35;;;;;;;0.88;0.40;;;20.40;99.90;;;;;;4997962;28;20085;-75
2022/07/09 12:35:01;;;;;;;0.80;0.40;;;20.50;99.90;;;;;;4998071;28;20045;-75
2022/07/09 12:37:27;;;;;;;0.55;0.30;;;20.60;99.90;;;;;;4998352;28;20565;-76
2022/07/09 12:39:53;;;;;;;1.52;0.52;;;20.60;99.90;;;;;;4999138;28;20556;-75
2022/07/09 12:42:20;;;;;;;0.68;0.43;;;20.80;99.90;;;;;;4997827;28;20064;-76
2022/07/09 12:44:47;;;;;;;0.22;0.22;;;20.80;99.90;;;;;;4997958;28;20548;-74
2022/07/09 12:47:14;;;;;;;2.70;0.43;;;20.70;99.90;;;;;;5014347;28;20470;-74
2022/07/09 12:49:39;;;;;;;0.75;0.30;;;20.70;99.90;;;;;;5014046;28;20137;-74